WetterOnline ( http://www.wetteronline.de )

Wetter aktuell Lübeck

Aktuelles Wetter: Pelzerhaken/Neustadt i.H. (2m)

6-stündlich | Neueste Meldungen
Ortszeit Temperatur Wetter
So, 22.04. 8:00 7.8° C leicht bewölkt
So, 22.04. 2:00 4.8° C wolkig
Sa, 21.04. 20:00 10.7° C wolkenlos
Sa, 21.04. 14:00 13.8° C wolkenlos
Sa, 21.04. 8:00 10.6° C leicht bewölkt
Sa, 21.04. 2:00 11.0° C leicht bewölkt
Fr, 20.04. 20:00 21.0° C leicht bewölkt
Fr, 20.04. 14:00 19.8° C wolkenlos
Ortszeit Temperatur Wetter
So, 22.04. 10:30 10.5° C wolkig
So, 22.04. 10:10 10.6° C wolkig
So, 22.04. 10:00 9.9° C leicht bewölkt
So, 22.04. 9:50 9.9° C wolkig
So, 22.04. 9:40 10.0° C wolkig
So, 22.04. 9:30 10.0° C wolkig
So, 22.04. 9:00 9.3° C leicht bewölkt
So, 22.04. 8:30 9.5° C wolkig
So, 22.04. 8:00 7.8° C leicht bewölkt
So, 22.04. 7:30 5.8° C wolkig
Ortszeit Relative Feuchte Sichtweite
So, 22.04. 8:00 84% 19 km
So, 22.04. 2:00 96% 15 km
Sa, 21.04. 20:00 82% 28 km
Sa, 21.04. 14:00 61% 12 km
Sa, 21.04. 8:00 80% 3.1 km
Sa, 21.04. 2:00 78% 4.0 km
Fr, 20.04. 20:00 43% 13 km
Fr, 20.04. 14:00 55% 15 km
Ortszeit Relative Feuchte Sichtweite
So, 22.04. 10:30 74% 16 km
So, 22.04. 10:10 73% -
So, 22.04. 10:00 72% 14 km
So, 22.04. 9:50 72% -
So, 22.04. 9:40 72% -
So, 22.04. 9:30 74% 20 km
So, 22.04. 9:00 78% 18 km
So, 22.04. 8:30 79% 22 km
So, 22.04. 8:00 84% 19 km
So, 22.04. 7:30 94% 7 km
Ortszeit Niederschlagsmenge Niederschlagsart
So, 22.04. 8:00 0.0 l/m2 in 12 Std. -
So, 22.04. 2:00 0.0 l/m2 in 6 Std. -
Sa, 21.04. 20:00 0.0 l/m2 in 12 Std. -
Sa, 21.04. 14:00 0.0 l/m2 in 6 Std. -
Sa, 21.04. 8:00 0.0 l/m2 in 12 Std. -
Sa, 21.04. 2:00 0.0 l/m2 in 6 Std. -
Fr, 20.04. 20:00 0.0 l/m2 in 12 Std. -
Fr, 20.04. 14:00 0.0 l/m2 in 6 Std. -
Ortszeit Niederschlagsmenge Niederschlagsart
So, 22.04. 10:30 0.0 l/m2 in 1 Std. -
So, 22.04. 10:10 keine Meldung -
So, 22.04. 10:00 0.0 l/m2 in 1 Std. -
So, 22.04. 9:50 keine Meldung -
So, 22.04. 9:40 keine Meldung -
So, 22.04. 9:30 0.0 l/m2 in 1 Std. -
So, 22.04. 9:00 0.0 l/m2 in 1 Std. -
So, 22.04. 8:30 0.0 l/m2 in 1 Std. -
So, 22.04. 8:00 0.0 l/m2 in 1 Std. -
So, 22.04. 7:30 0.0 l/m2 in 1 Std. -
Ortszeit Stärke Spitze Richtung
km/h Bft. km/h Grad Sektor
So, 22.04. 8:00 4 1 11 20° N
So, 22.04. 2:00 6 1 13 310° NW
Sa, 21.04. 20:00 4 1 22 140° SO
Sa, 21.04. 14:00 9 2 19 110° O
Sa, 21.04. 8:00 9 2 19 300° NW
Sa, 21.04. 2:00 7 2 29 250° W
Fr, 20.04. 20:00 13 3 43 280° W
Fr, 20.04. 14:00 13 3 19 170° S
Ortszeit Stärke Spitze Richtung
km/h Bft. km/h Grad Sektor
So, 22.04. 10:30 7 2 11 90° O
So, 22.04. 10:10 6 1 - 100° O
So, 22.04. 10:00 4 1 7 120° SO
So, 22.04. 9:50 4 1 - 120° SO
So, 22.04. 9:40 4 1 - 120° SO
So, 22.04. 9:30 4 1 7 100° O
So, 22.04. 9:00 4 1 7 90° O
So, 22.04. 8:30 4 1 7 90° O
So, 22.04. 8:00 4 1 4 20° N
So, 22.04. 7:30 4 1 4 350° N
Ortszeit Untergrenze Bedeckung Gattung
total tief tief mittel hoch
So, 22.04. 8:00 9000 m 8/8 0/8 - - -
So, 22.04. 2:00 8700 m 8/8 0/8 - - -
Sa, 21.04. 20:00 - 0/8 0/8 - - -
Sa, 21.04. 14:00 - 0/8 0/8 - - -
Sa, 21.04. 8:00 10500 m 3/8 0/8 - - -
Sa, 21.04. 2:00 9000 m 5/8 0/8 - - -
Fr, 20.04. 20:00 9000 m 4/8 0/8 - - -
Fr, 20.04. 14:00 - 0/8 0/8 - - -
Ortszeit Bedeckungsgrad in Achtel und Wolkenuntergrenze
So, 22.04. 10:30 8(7800m) 8(9000m)
So, 22.04. 10:10 8(7500m) 8(9000m)
So, 22.04. 10:00 8(7500m) 8(9000m)
So, 22.04. 9:50 8(7500m) 8(9000m)
So, 22.04. 9:40 8(7500m)
So, 22.04. 9:30 7(7500m) 8(8100m) 8(9000m)
So, 22.04. 9:00 8(8100m) 8(9000m) 8(9000m)
So, 22.04. 8:30 4(8400m) 8(9000m) 8(10500m)
So, 22.04. 8:00 3(9000m) 8(10500m) 8(10500m)
So, 22.04. 7:30 8(9000m) 8(10500m)
Ortszeit Luftdruck NN (hPa) Tendenz (hPa in 3 Std.)
So, 22.04. 8:00 1018 - 0,5
So, 22.04. 2:00 1020 - 0,1
Sa, 21.04. 20:00 1020 - 0,8
Sa, 21.04. 14:00 1022 - 0,3
Sa, 21.04. 8:00 1021 + 1,1
Sa, 21.04. 2:00 1019 - 0,1
Fr, 20.04. 20:00 1019 0,0
Fr, 20.04. 14:00 1020 - 2,2
Ortszeit Luftdruck NN (hPa) Tendenz (hPa in 3 Std.)
So, 22.04. 10:30 1018 - 0,5
So, 22.04. 10:10 1018 keine Meldung
So, 22.04. 10:00 1018 - 0,6
So, 22.04. 9:50 1018 keine Meldung
So, 22.04. 9:40 1018 keine Meldung
So, 22.04. 9:30 1018 - 0,5
So, 22.04. 9:00 1018 - 0,5
So, 22.04. 8:30 1018 - 0,6
So, 22.04. 8:00 1018 - 0,5
So, 22.04. 7:30 1018 - 0,6
Ortszeit Schneehöhe (cm)
So, 22.04. 8:00 0
So, 22.04. 2:00 0
Sa, 21.04. 20:00 0
Sa, 21.04. 14:00 0
Sa, 21.04. 8:00 0
Sa, 21.04. 2:00 0
Fr, 20.04. 20:00 0
Fr, 20.04. 14:00 0
Ortszeit Schneehöhe (cm)
So, 22.04. 10:30 0
So, 22.04. 10:10 0
So, 22.04. 10:00 0
So, 22.04. 9:50 0
So, 22.04. 9:40 0
So, 22.04. 9:30 0
So, 22.04. 9:00 0
So, 22.04. 8:30 0
So, 22.04. 8:00 0
So, 22.04. 7:30 0
Link zu dieser Seite / Seite empfehlen

Das Wetter in ...